SWA2192 KAUS-KLAS
Flight info
| Callsign | SWA2192 |
|---|---|
| Flight time | 2h 53m |
| Altitude | 38000 |
| Route | AEROZ2 SJT ELOYE CNX ZUN HAHAA RKSTR4 |
| Aircraft | B38M/M-SADE2E3GHIJ4J7P2RWZ/LB1D1 |
Departure
| Time | 2026-05-06 00:04 |
|---|---|
| Airport | Austin Bergstrom International Airport (KAUS) |
Arrival
| Time | 2026-05-06 02:58 |
|---|---|
| Airport | Harry Reid International Airport (KLAS) |
| Time | Latitude | Longitude | Altitude | Speed | Heading |
|---|---|---|---|---|---|
| 2026-05-05 23:28 | 30.20149 | -97.66552 | 530 ft | 0 kts | 338° |
| 2026-05-05 23:29 | 30.20151 | -97.66553 | 530 ft | 90 kts | 338° |
| 2026-05-05 23:29 | 30.20158 | -97.66558 | 530 ft | 0 kts | 338° |
| 2026-05-05 23:54 | 30.20146 | -97.66553 | 530 ft | 3 kts | 335° |
| 2026-05-05 23:54 | 30.20128 | -97.66543 | 530 ft | 3 kts | 335° |
| 2026-05-05 23:54 | 30.20114 | -97.66536 | 530 ft | 3 kts | 344° |
| 2026-05-05 23:55 | 30.20097 | -97.66535 | 530 ft | 3 kts | 26° |
| 2026-05-05 23:55 | 30.20084 | -97.66548 | 530 ft | 3 kts | 64° |
| 2026-05-05 23:55 | 30.20078 | -97.66569 | 530 ft | 2 kts | 76° |
| 2026-05-05 23:55 | 30.20076 | -97.66577 | 530 ft | 0 kts | 76° |
| 2026-05-05 23:56 | 30.20076 | -97.66578 | 530 ft | 0 kts | 76° |
| 2026-05-05 23:58 | 30.20076 | -97.66577 | 530 ft | 1 kts | 76° |
| 2026-05-05 23:58 | 30.20082 | -97.66551 | 530 ft | 7 kts | 76° |
| 2026-05-05 23:59 | 30.20091 | -97.66475 | 530 ft | 11 kts | 88° |
| 2026-05-05 23:59 | 30.20064 | -97.66396 | 530 ft | 12 kts | 159° |
| 2026-05-05 23:59 | 30.19978 | -97.66390 | 530 ft | 13 kts | 179° |
| 2026-05-05 23:59 | 30.19914 | -97.66331 | 530 ft | 13 kts | 98° |
| 2026-05-06 00:00 | 30.19916 | -97.66213 | 530 ft | 17 kts | 88° |
| 2026-05-06 00:00 | 30.19922 | -97.66045 | 530 ft | 23 kts | 78° |
| 2026-05-06 00:00 | 30.20047 | -97.65992 | 530 ft | 21 kts | 357° |
| 2026-05-06 00:00 | 30.20200 | -97.65997 | 530 ft | 23 kts | 359° |
| 2026-05-06 00:01 | 30.20352 | -97.65985 | 530 ft | 20 kts | 25° |
| 2026-05-06 00:01 | 30.20372 | -97.65912 | 530 ft | 3 kts | 90° |
| 2026-05-06 00:01 | 30.20371 | -97.65902 | 530 ft | 1 kts | 91° |
| 2026-05-06 00:01 | 30.20371 | -97.65898 | 530 ft | 0 kts | 91° |
| 2026-05-06 00:02 | 30.20371 | -97.65897 | 530 ft | 0 kts | 91° |
| 2026-05-06 00:03 | 30.20371 | -97.65862 | 530 ft | 10 kts | 90° |
| 2026-05-06 00:03 | 30.20324 | -97.65790 | 531 ft | 14 kts | 175° |
| 2026-05-06 00:03 | 30.20203 | -97.65786 | 528 ft | 26 kts | 179° |
| 2026-05-06 00:03 | 30.19850 | -97.65776 | 527 ft | 83 kts | 179° |
| 2026-05-06 00:04 | 30.19075 | -97.65756 | 533 ft | 138 kts | 179° |
| 2026-05-06 00:04 | 30.17972 | -97.65727 | 655 ft | 170 kts | 178° |
| 2026-05-06 00:04 | 30.16752 | -97.65694 | 1169 ft | 181 kts | 178° |
| 2026-05-06 00:04 | 30.15463 | -97.65650 | 1788 ft | 190 kts | 179° |
| 2026-05-06 00:05 | 30.12685 | -97.65537 | 3016 ft | 213 kts | 179° |
| 2026-05-06 00:05 | 30.11174 | -97.65467 | 3669 ft | 220 kts | 179° |
| 2026-05-06 00:05 | 30.09654 | -97.65791 | 4216 ft | 230 kts | 211° |
| 2026-05-06 00:06 | 30.08625 | -97.67183 | 4928 ft | 235 kts | 249° |
| 2026-05-06 00:06 | 30.08534 | -97.69094 | 5486 ft | 252 kts | 283° |
| 2026-05-06 00:06 | 30.09492 | -97.70838 | 6046 ft | 269 kts | 318° |
| 2026-05-06 00:06 | 30.11121 | -97.71974 | 6695 ft | 276 kts | 323° |
| 2026-05-06 00:07 | 30.12447 | -97.73530 | 7361 ft | 271 kts | 297° |
| 2026-05-06 00:07 | 30.13374 | -97.75440 | 8012 ft | 275 kts | 297° |
| 2026-05-06 00:07 | 30.14389 | -97.77334 | 8714 ft | 278 kts | 298° |
| 2026-05-06 00:07 | 30.15455 | -97.79219 | 9410 ft | 282 kts | 299° |
| 2026-05-06 00:08 | 30.16557 | -97.81112 | 10081 ft | 284 kts | 300° |
| 2026-05-06 00:08 | 30.17679 | -97.83021 | 10477 ft | 299 kts | 300° |
| 2026-05-06 00:08 | 30.18883 | -97.85072 | 10757 ft | 317 kts | 300° |
| 2026-05-06 00:08 | 30.20150 | -97.87222 | 11122 ft | 329 kts | 300° |
| 2026-05-06 00:09 | 30.21455 | -97.89419 | 11729 ft | 332 kts | 300° |
| 2026-05-06 00:09 | 30.22778 | -97.91622 | 12457 ft | 334 kts | 300° |
| 2026-05-06 00:09 | 30.24117 | -97.93840 | 13167 ft | 337 kts | 300° |
| 2026-05-06 00:09 | 30.25470 | -97.96076 | 13898 ft | 340 kts | 300° |
| 2026-05-06 00:10 | 30.26837 | -97.98336 | 14562 ft | 343 kts | 300° |
| 2026-05-06 00:10 | 30.28212 | -98.00602 | 15239 ft | 346 kts | 300° |
| 2026-05-06 00:10 | 30.29602 | -98.02897 | 15883 ft | 349 kts | 300° |
| 2026-05-06 00:10 | 30.31002 | -98.05208 | 16525 ft | 352 kts | 299° |
| 2026-05-06 00:11 | 30.32395 | -98.07506 | 17142 ft | 355 kts | 299° |
| 2026-05-06 00:11 | 30.33824 | -98.09867 | 17735 ft | 359 kts | 299° |
| 2026-05-06 00:11 | 30.35261 | -98.12242 | 18324 ft | 361 kts | 299° |
| 2026-05-06 00:11 | 30.36706 | -98.14631 | 18885 ft | 363 kts | 298° |
| 2026-05-06 00:12 | 30.38152 | -98.17021 | 19460 ft | 363 kts | 298° |
| 2026-05-06 00:12 | 30.39610 | -98.19434 | 19985 ft | 365 kts | 298° |
| 2026-05-06 00:12 | 30.41069 | -98.21846 | 20530 ft | 367 kts | 298° |
| 2026-05-06 00:12 | 30.42537 | -98.24275 | 21084 ft | 368 kts | 298° |
| 2026-05-06 00:13 | 30.44012 | -98.26717 | 21632 ft | 370 kts | 298° |
| 2026-05-06 00:13 | 30.44990 | -98.28337 | 21989 ft | 371 kts | 298° |
| 2026-05-06 00:13 | 30.46604 | -98.31816 | 22647 ft | 366 kts | 289° |
| 2026-05-06 00:13 | 30.47722 | -98.34453 | 23117 ft | 370 kts | 290° |
| 2026-05-06 00:14 | 30.48878 | -98.37130 | 23584 ft | 371 kts | 290° |
| 2026-05-06 00:14 | 30.50046 | -98.39811 | 23990 ft | 373 kts | 290° |
| 2026-05-06 00:14 | 30.50825 | -98.41590 | 24266 ft | 374 kts | 290° |
| 2026-05-06 00:14 | 30.52410 | -98.45205 | 24838 ft | 376 kts | 290° |
| 2026-05-06 00:15 | 30.53195 | -98.46997 | 25102 ft | 377 kts | 290° |
| 2026-05-06 00:15 | 30.54792 | -98.50639 | 25626 ft | 380 kts | 290° |
| 2026-05-06 00:15 | 30.55992 | -98.53377 | 26022 ft | 381 kts | 289° |
| 2026-05-06 00:15 | 30.57195 | -98.56125 | 26411 ft | 383 kts | 289° |
| 2026-05-06 00:16 | 30.58404 | -98.58887 | 26783 ft | 385 kts | 289° |
| 2026-05-06 00:16 | 30.59621 | -98.61671 | 27143 ft | 387 kts | 289° |
| 2026-05-06 00:16 | 30.60838 | -98.64456 | 27512 ft | 388 kts | 289° |
| 2026-05-06 00:16 | 30.62062 | -98.67260 | 27894 ft | 389 kts | 289° |
| 2026-05-06 00:17 | 30.63279 | -98.70048 | 28244 ft | 391 kts | 289° |
| 2026-05-06 00:17 | 30.64508 | -98.72868 | 28601 ft | 393 kts | 289° |
| 2026-05-06 00:17 | 30.65744 | -98.75707 | 28942 ft | 395 kts | 289° |
| 2026-05-06 00:17 | 30.66986 | -98.78561 | 29257 ft | 397 kts | 289° |
| 2026-05-06 00:18 | 30.68239 | -98.81440 | 29588 ft | 398 kts | 289° |
| 2026-05-06 00:18 | 30.69491 | -98.84320 | 29890 ft | 400 kts | 288° |
| 2026-05-06 00:18 | 30.70741 | -98.87214 | 30151 ft | 401 kts | 288° |
| 2026-05-06 00:18 | 30.71993 | -98.90123 | 30413 ft | 403 kts | 288° |
| 2026-05-06 00:19 | 30.73248 | -98.93039 | 30746 ft | 402 kts | 288° |
| 2026-05-06 00:19 | 30.74497 | -98.95944 | 31126 ft | 401 kts | 288° |
| 2026-05-06 00:19 | 30.75742 | -98.98841 | 31496 ft | 399 kts | 288° |
| 2026-05-06 00:19 | 30.76966 | -99.01693 | 31881 ft | 398 kts | 288° |
| 2026-05-06 00:20 | 30.78198 | -99.04566 | 32276 ft | 397 kts | 287° |
| 2026-05-06 00:20 | 30.79429 | -99.07435 | 32662 ft | 395 kts | 287° |
| 2026-05-06 00:20 | 30.80655 | -99.10297 | 33063 ft | 394 kts | 287° |
| 2026-05-06 00:20 | 30.81872 | -99.13142 | 33476 ft | 392 kts | 287° |
| 2026-05-06 00:21 | 30.83085 | -99.15976 | 33870 ft | 390 kts | 287° |
| 2026-05-06 00:21 | 30.84291 | -99.18798 | 34191 ft | 389 kts | 287° |
| 2026-05-06 00:21 | 30.85497 | -99.21620 | 34510 ft | 388 kts | 287° |
| 2026-05-06 00:21 | 30.86694 | -99.24427 | 34824 ft | 387 kts | 287° |
| 2026-05-06 00:22 | 30.87892 | -99.27235 | 35129 ft | 386 kts | 287° |
| 2026-05-06 00:22 | 30.89085 | -99.30036 | 35413 ft | 386 kts | 287° |
| 2026-05-06 00:22 | 30.90275 | -99.32830 | 35691 ft | 385 kts | 287° |
| 2026-05-06 00:22 | 30.91446 | -99.35585 | 35963 ft | 384 kts | 287° |
| 2026-05-06 00:23 | 30.92631 | -99.38370 | 36234 ft | 383 kts | 287° |
| 2026-05-06 00:23 | 30.93812 | -99.41151 | 36505 ft | 383 kts | 287° |
| 2026-05-06 00:23 | 30.94996 | -99.43941 | 36756 ft | 382 kts | 287° |
| 2026-05-06 00:23 | 30.96173 | -99.46715 | 37008 ft | 381 kts | 287° |
| 2026-05-06 00:24 | 30.97346 | -99.49482 | 37257 ft | 380 kts | 287° |
| 2026-05-06 00:24 | 30.98516 | -99.52245 | 37476 ft | 380 kts | 287° |
| 2026-05-06 00:24 | 30.99682 | -99.55000 | 37685 ft | 379 kts | 287° |
| 2026-05-06 00:25 | 31.02011 | -99.60509 | 37713 ft | 376 kts | 287° |
| 2026-05-06 00:25 | 31.04305 | -99.65945 | 37709 ft | 376 kts | 287° |
| 2026-05-06 00:26 | 31.06611 | -99.71416 | 37684 ft | 375 kts | 287° |
| 2026-05-06 00:26 | 31.08915 | -99.76890 | 37682 ft | 375 kts | 287° |
| 2026-05-06 00:27 | 31.11212 | -99.82354 | 37688 ft | 375 kts | 286° |
| 2026-05-06 00:27 | 31.13506 | -99.87821 | 37693 ft | 375 kts | 286° |
| 2026-05-06 00:28 | 31.15781 | -99.93253 | 37693 ft | 375 kts | 286° |
| 2026-05-06 00:28 | 31.18071 | -99.98726 | 37702 ft | 374 kts | 286° |
| 2026-05-06 00:29 | 31.20355 | -100.04192 | 37709 ft | 374 kts | 286° |
| 2026-05-06 00:29 | 31.22616 | -100.09614 | 37715 ft | 374 kts | 286° |
| 2026-05-06 00:30 | 31.24912 | -100.15126 | 37734 ft | 374 kts | 286° |
| 2026-05-06 00:30 | 31.27171 | -100.20557 | 37753 ft | 374 kts | 286° |
| 2026-05-06 00:31 | 31.29446 | -100.26036 | 37768 ft | 374 kts | 286° |
| 2026-05-06 00:31 | 31.31720 | -100.31521 | 37785 ft | 375 kts | 286° |
| 2026-05-06 00:32 | 31.33994 | -100.37010 | 37798 ft | 375 kts | 285° |
| 2026-05-06 00:32 | 31.36265 | -100.42501 | 37806 ft | 375 kts | 285° |
| 2026-05-06 00:33 | 31.38984 | -100.47808 | 37817 ft | 387 kts | 294° |
| 2026-05-06 00:33 | 31.42134 | -100.52888 | 37805 ft | 388 kts | 294° |
| 2026-05-06 00:34 | 31.45323 | -100.57999 | 37795 ft | 389 kts | 294° |
| 2026-05-06 00:34 | 31.48519 | -100.63118 | 37784 ft | 389 kts | 294° |
| 2026-05-06 00:35 | 31.51717 | -100.68249 | 37776 ft | 390 kts | 294° |
| 2026-05-06 00:35 | 31.54916 | -100.73387 | 37765 ft | 390 kts | 294° |
| 2026-05-06 00:36 | 31.58117 | -100.78538 | 37755 ft | 391 kts | 294° |
| 2026-05-06 00:36 | 31.60777 | -100.82821 | 37749 ft | 391 kts | 294° |
| 2026-05-06 00:37 | 31.64501 | -100.88825 | 37747 ft | 391 kts | 294° |
| 2026-05-06 00:37 | 31.67165 | -100.93127 | 37749 ft | 392 kts | 294° |
| 2026-05-06 00:38 | 31.70368 | -100.98306 | 37751 ft | 392 kts | 294° |
| 2026-05-06 00:38 | 31.73571 | -101.03490 | 37752 ft | 391 kts | 294° |
| 2026-05-06 00:39 | 31.76762 | -101.08663 | 37754 ft | 391 kts | 294° |
| 2026-05-06 00:39 | 31.79932 | -101.13808 | 37756 ft | 390 kts | 294° |
| 2026-05-06 00:40 | 31.83112 | -101.18978 | 37754 ft | 390 kts | 294° |
| 2026-05-06 00:40 | 31.86292 | -101.24155 | 37752 ft | 389 kts | 294° |
| 2026-05-06 00:41 | 31.89459 | -101.29315 | 37755 ft | 389 kts | 294° |
| 2026-05-06 00:41 | 31.92621 | -101.34475 | 37775 ft | 388 kts | 294° |
| 2026-05-06 00:42 | 31.95753 | -101.39594 | 37780 ft | 387 kts | 294° |
| 2026-05-06 00:42 | 31.98893 | -101.44733 | 37807 ft | 386 kts | 294° |
| 2026-05-06 00:43 | 32.02029 | -101.49872 | 37824 ft | 385 kts | 294° |
| 2026-05-06 00:43 | 32.05153 | -101.54997 | 37839 ft | 385 kts | 294° |
| 2026-05-06 00:44 | 32.08254 | -101.60092 | 37847 ft | 384 kts | 293° |
| 2026-05-06 00:44 | 32.11369 | -101.65218 | 37846 ft | 384 kts | 293° |
| 2026-05-06 00:45 | 32.14478 | -101.70339 | 37837 ft | 383 kts | 293° |
| 2026-05-06 00:45 | 32.17584 | -101.75462 | 37823 ft | 383 kts | 293° |
| 2026-05-06 00:46 | 32.20682 | -101.80581 | 37799 ft | 383 kts | 293° |
| 2026-05-06 00:46 | 32.23764 | -101.85678 | 37778 ft | 383 kts | 293° |
| 2026-05-06 00:47 | 32.26858 | -101.90803 | 37789 ft | 383 kts | 293° |
| 2026-05-06 00:47 | 32.29956 | -101.95940 | 37785 ft | 384 kts | 292° |
| 2026-05-06 00:48 | 32.33050 | -102.01079 | 37775 ft | 384 kts | 292° |
| 2026-05-06 00:48 | 32.36154 | -102.06241 | 37767 ft | 384 kts | 292° |
| 2026-05-06 00:49 | 32.39253 | -102.11402 | 37754 ft | 385 kts | 292° |
| 2026-05-06 00:49 | 32.42355 | -102.16576 | 37751 ft | 385 kts | 292° |
| 2026-05-06 00:50 | 32.45436 | -102.21720 | 37751 ft | 385 kts | 292° |
| 2026-05-06 00:50 | 32.48536 | -102.26904 | 37754 ft | 386 kts | 292° |
| 2026-05-06 00:51 | 32.51639 | -102.32100 | 37778 ft | 386 kts | 292° |
| 2026-05-06 00:51 | 32.54735 | -102.37291 | 37816 ft | 386 kts | 291° |
| 2026-05-06 00:52 | 32.57838 | -102.42501 | 37857 ft | 386 kts | 291° |
| 2026-05-06 00:52 | 32.60906 | -102.47659 | 37879 ft | 385 kts | 291° |
| 2026-05-06 00:53 | 32.63993 | -102.52857 | 37915 ft | 385 kts | 291° |
| 2026-05-06 00:53 | 32.67078 | -102.58057 | 37930 ft | 385 kts | 291° |
| 2026-05-06 00:54 | 32.70158 | -102.63258 | 37928 ft | 385 kts | 291° |
| 2026-05-06 00:54 | 32.73233 | -102.68457 | 37927 ft | 384 kts | 291° |
| 2026-05-06 00:55 | 32.76305 | -102.73657 | 37911 ft | 384 kts | 291° |
| 2026-05-06 00:55 | 32.79375 | -102.78859 | 37881 ft | 384 kts | 291° |
| 2026-05-06 00:56 | 32.82439 | -102.84059 | 37837 ft | 384 kts | 291° |
| 2026-05-06 00:56 | 32.85497 | -102.89254 | 37799 ft | 383 kts | 291° |
| 2026-05-06 00:57 | 32.88531 | -102.94423 | 37770 ft | 382 kts | 290° |
| 2026-05-06 00:57 | 32.91470 | -102.99676 | 37774 ft | 380 kts | 290° |
| 2026-05-06 00:58 | 32.94409 | -103.04918 | 37773 ft | 380 kts | 290° |
| 2026-05-06 00:58 | 32.97348 | -103.10162 | 37765 ft | 380 kts | 290° |
| 2026-05-06 00:59 | 33.00279 | -103.15399 | 37759 ft | 380 kts | 290° |
| 2026-05-06 00:59 | 33.03205 | -103.20632 | 37737 ft | 379 kts | 290° |
| 2026-05-06 01:00 | 33.06105 | -103.25829 | 37720 ft | 379 kts | 290° |
| 2026-05-06 01:00 | 33.09020 | -103.31059 | 37722 ft | 378 kts | 290° |
| 2026-05-06 01:01 | 33.11929 | -103.36285 | 37730 ft | 378 kts | 290° |
| 2026-05-06 01:01 | 33.14834 | -103.41511 | 37711 ft | 378 kts | 290° |
| 2026-05-06 01:02 | 33.17737 | -103.46742 | 37716 ft | 377 kts | 290° |
| 2026-05-06 01:02 | 33.20636 | -103.51972 | 37716 ft | 377 kts | 290° |
| 2026-05-06 01:03 | 33.23507 | -103.57161 | 37712 ft | 376 kts | 289° |
| 2026-05-06 01:03 | 33.26391 | -103.62378 | 37711 ft | 376 kts | 289° |
| 2026-05-06 01:04 | 33.29272 | -103.67599 | 37707 ft | 375 kts | 289° |
| 2026-05-06 01:04 | 33.32145 | -103.72813 | 37705 ft | 375 kts | 289° |
| 2026-05-06 01:05 | 33.35014 | -103.78025 | 37698 ft | 375 kts | 289° |
| 2026-05-06 01:05 | 33.37880 | -103.83240 | 37706 ft | 374 kts | 289° |
| 2026-05-06 01:06 | 33.40739 | -103.88450 | 37700 ft | 374 kts | 289° |
| 2026-05-06 01:06 | 33.43574 | -103.93624 | 37693 ft | 374 kts | 289° |
| 2026-05-06 01:07 | 33.46430 | -103.98844 | 37692 ft | 374 kts | 289° |
| 2026-05-06 01:07 | 33.49279 | -104.04057 | 37681 ft | 374 kts | 289° |
| 2026-05-06 01:08 | 33.52134 | -104.09289 | 37684 ft | 374 kts | 289° |
| 2026-05-06 01:08 | 33.54959 | -104.14475 | 37679 ft | 374 kts | 289° |
| 2026-05-06 01:09 | 33.57806 | -104.19708 | 37675 ft | 374 kts | 289° |
| 2026-05-06 01:09 | 33.60655 | -104.24950 | 37669 ft | 375 kts | 289° |
| 2026-05-06 01:10 | 33.63505 | -104.30204 | 37663 ft | 376 kts | 289° |
| 2026-05-06 01:10 | 33.66360 | -104.35474 | 37663 ft | 376 kts | 289° |
| 2026-05-06 01:11 | 33.69194 | -104.40712 | 37664 ft | 377 kts | 289° |
| 2026-05-06 01:11 | 33.72052 | -104.46002 | 37676 ft | 378 kts | 289° |
| 2026-05-06 01:12 | 33.74912 | -104.51305 | 37674 ft | 378 kts | 289° |
| 2026-05-06 01:12 | 33.77781 | -104.56632 | 37676 ft | 379 kts | 289° |
| 2026-05-06 01:13 | 33.80658 | -104.61980 | 37686 ft | 381 kts | 289° |
| 2026-05-06 01:13 | 33.83508 | -104.67288 | 37687 ft | 382 kts | 289° |
| 2026-05-06 01:14 | 33.87840 | -104.75371 | 37698 ft | 384 kts | 289° |
| 2026-05-06 01:14 | 33.90738 | -104.80787 | 37702 ft | 385 kts | 288° |
| 2026-05-06 01:15 | 33.93638 | -104.86216 | 37704 ft | 386 kts | 288° |
| 2026-05-06 01:15 | 33.96546 | -104.91666 | 37709 ft | 387 kts | 288° |
| 2026-05-06 01:16 | 33.99434 | -104.97089 | 37719 ft | 387 kts | 288° |
| 2026-05-06 01:16 | 34.02342 | -105.02556 | 37721 ft | 387 kts | 288° |
| 2026-05-06 01:17 | 34.05241 | -105.08017 | 37727 ft | 386 kts | 288° |
| 2026-05-06 01:17 | 34.08140 | -105.13482 | 37730 ft | 386 kts | 288° |
| 2026-05-06 01:18 | 34.11029 | -105.18939 | 37732 ft | 385 kts | 288° |
| 2026-05-06 01:18 | 34.13909 | -105.24388 | 37742 ft | 385 kts | 288° |
| 2026-05-06 01:19 | 34.16771 | -105.29811 | 37746 ft | 385 kts | 288° |
| 2026-05-06 01:19 | 34.19647 | -105.35268 | 37759 ft | 384 kts | 288° |
| 2026-05-06 01:20 | 34.22513 | -105.40713 | 37769 ft | 383 kts | 288° |
| 2026-05-06 01:20 | 34.25371 | -105.46150 | 37773 ft | 383 kts | 288° |
| 2026-05-06 01:21 | 34.28208 | -105.51554 | 37784 ft | 382 kts | 287° |
| 2026-05-06 01:21 | 34.31049 | -105.56974 | 37778 ft | 381 kts | 288° |
| 2026-05-06 01:22 | 34.33883 | -105.62391 | 37791 ft | 381 kts | 287° |
| 2026-05-06 01:22 | 34.36456 | -105.67874 | 37776 ft | 356 kts | 274° |
| 2026-05-06 01:23 | 34.37696 | -105.73608 | 37792 ft | 352 kts | 272° |
| 2026-05-06 01:23 | 34.38844 | -105.79370 | 37797 ft | 351 kts | 272° |
| 2026-05-06 01:24 | 34.39754 | -105.84154 | 37800 ft | 351 kts | 271° |
| 2026-05-06 01:24 | 34.40830 | -105.89916 | 37798 ft | 350 kts | 271° |
| 2026-05-06 01:25 | 34.41900 | -105.95683 | 37800 ft | 350 kts | 271° |
| 2026-05-06 01:25 | 34.42967 | -106.01451 | 37807 ft | 350 kts | 271° |
| 2026-05-06 01:26 | 34.44030 | -106.07213 | 37800 ft | 350 kts | 271° |
| 2026-05-06 01:26 | 34.45086 | -106.12951 | 37788 ft | 351 kts | 271° |
| 2026-05-06 01:27 | 34.46144 | -106.18723 | 37789 ft | 351 kts | 271° |
| 2026-05-06 01:27 | 34.47206 | -106.24526 | 37797 ft | 352 kts | 271° |
| 2026-05-06 01:28 | 34.48263 | -106.30326 | 37793 ft | 352 kts | 271° |
| 2026-05-06 01:28 | 34.49319 | -106.36131 | 37788 ft | 353 kts | 271° |
| 2026-05-06 01:29 | 34.50373 | -106.41942 | 37790 ft | 353 kts | 271° |
| 2026-05-06 01:29 | 34.51419 | -106.47729 | 37776 ft | 353 kts | 271° |
| 2026-05-06 01:30 | 34.52472 | -106.53567 | 37775 ft | 354 kts | 271° |
| 2026-05-06 01:30 | 34.53523 | -106.59414 | 37762 ft | 355 kts | 271° |
| 2026-05-06 01:31 | 34.54576 | -106.65290 | 37759 ft | 356 kts | 271° |
| 2026-05-06 01:31 | 34.55623 | -106.71147 | 37757 ft | 358 kts | 271° |
| 2026-05-06 01:32 | 34.56676 | -106.77054 | 37751 ft | 359 kts | 271° |
| 2026-05-06 01:32 | 34.57732 | -106.82999 | 37753 ft | 361 kts | 271° |
| 2026-05-06 01:33 | 34.58787 | -106.88954 | 37756 ft | 361 kts | 271° |
| 2026-05-06 01:33 | 34.59842 | -106.94928 | 37762 ft | 362 kts | 271° |
| 2026-05-06 01:34 | 34.60898 | -107.00921 | 37758 ft | 363 kts | 271° |
| 2026-05-06 01:34 | 34.61946 | -107.06895 | 37753 ft | 364 kts | 271° |
| 2026-05-06 01:35 | 34.63002 | -107.12926 | 37761 ft | 366 kts | 271° |
| 2026-05-06 01:35 | 34.64058 | -107.18981 | 37760 ft | 367 kts | 271° |
| 2026-05-06 01:36 | 34.65109 | -107.25022 | 37772 ft | 368 kts | 272° |
| 2026-05-06 01:36 | 34.66168 | -107.31132 | 37792 ft | 371 kts | 272° |
| 2026-05-06 01:37 | 34.67229 | -107.37265 | 37780 ft | 370 kts | 272° |
| 2026-05-06 01:37 | 34.68283 | -107.43384 | 37794 ft | 371 kts | 272° |
| 2026-05-06 01:38 | 34.69337 | -107.49522 | 37794 ft | 371 kts | 272° |
| 2026-05-06 01:38 | 34.70392 | -107.55678 | 37805 ft | 373 kts | 272° |
| 2026-05-06 01:39 | 34.71435 | -107.61793 | 37805 ft | 371 kts | 272° |
| 2026-05-06 01:39 | 34.72482 | -107.67948 | 37812 ft | 372 kts | 272° |
| 2026-05-06 01:40 | 34.73528 | -107.74113 | 37811 ft | 372 kts | 272° |
| 2026-05-06 01:40 | 34.74573 | -107.80299 | 37817 ft | 372 kts | 272° |
| 2026-05-06 01:41 | 34.75613 | -107.86467 | 37822 ft | 372 kts | 272° |
| 2026-05-06 01:41 | 34.76644 | -107.92608 | 37824 ft | 373 kts | 272° |
| 2026-05-06 01:42 | 34.77681 | -107.98804 | 37832 ft | 374 kts | 272° |
| 2026-05-06 01:42 | 34.78716 | -108.05007 | 37826 ft | 374 kts | 272° |
| 2026-05-06 01:43 | 34.79750 | -108.11221 | 37816 ft | 374 kts | 272° |
| 2026-05-06 01:43 | 34.80773 | -108.17392 | 37834 ft | 375 kts | 272° |
| 2026-05-06 01:44 | 34.81800 | -108.23611 | 37839 ft | 376 kts | 272° |
| 2026-05-06 01:44 | 34.82828 | -108.29853 | 37840 ft | 376 kts | 272° |
| 2026-05-06 01:45 | 34.83853 | -108.36100 | 37834 ft | 376 kts | 272° |
| 2026-05-06 01:45 | 34.84875 | -108.42350 | 37833 ft | 377 kts | 272° |
| 2026-05-06 01:46 | 34.85896 | -108.48613 | 37835 ft | 377 kts | 272° |
| 2026-05-06 01:46 | 34.86915 | -108.54884 | 37835 ft | 378 kts | 272° |
| 2026-05-06 01:47 | 34.87925 | -108.61125 | 37831 ft | 378 kts | 272° |
| 2026-05-06 01:47 | 34.88941 | -108.67420 | 37832 ft | 378 kts | 272° |
| 2026-05-06 01:48 | 34.89952 | -108.73708 | 37828 ft | 379 kts | 272° |
| 2026-05-06 01:48 | 34.90964 | -108.80025 | 37829 ft | 379 kts | 272° |
| 2026-05-06 01:49 | 34.91967 | -108.86303 | 37822 ft | 380 kts | 272° |
| 2026-05-06 01:49 | 34.92977 | -108.92636 | 37818 ft | 380 kts | 272° |
| 2026-05-06 01:50 | 34.93983 | -108.98973 | 37824 ft | 381 kts | 272° |
| 2026-05-06 01:50 | 34.94990 | -109.05337 | 37823 ft | 382 kts | 272° |
| 2026-05-06 01:51 | 34.95892 | -109.11053 | 37822 ft | 382 kts | 272° |
| 2026-05-06 01:51 | 34.97005 | -109.17418 | 37828 ft | 385 kts | 275° |
| 2026-05-06 01:52 | 34.98242 | -109.23785 | 37825 ft | 386 kts | 274° |
| 2026-05-06 01:52 | 34.99469 | -109.30169 | 37828 ft | 387 kts | 274° |
| 2026-05-06 01:53 | 35.00697 | -109.36582 | 37828 ft | 388 kts | 274° |
| 2026-05-06 01:53 | 35.01924 | -109.43007 | 37832 ft | 389 kts | 274° |
| 2026-05-06 01:54 | 35.03142 | -109.49409 | 37834 ft | 390 kts | 275° |
| 2026-05-06 01:54 | 35.04369 | -109.55873 | 37839 ft | 391 kts | 274° |
| 2026-05-06 01:55 | 35.05595 | -109.62359 | 37838 ft | 392 kts | 275° |
| 2026-05-06 01:55 | 35.06817 | -109.68837 | 37842 ft | 393 kts | 275° |
| 2026-05-06 01:56 | 35.08044 | -109.75367 | 37840 ft | 395 kts | 275° |
| 2026-05-06 01:56 | 35.09272 | -109.81918 | 37840 ft | 395 kts | 275° |
| 2026-05-06 01:57 | 35.10496 | -109.88476 | 37845 ft | 397 kts | 275° |
| 2026-05-06 01:57 | 35.11717 | -109.95031 | 37835 ft | 398 kts | 275° |
| 2026-05-06 01:58 | 35.12945 | -110.01646 | 37843 ft | 399 kts | 275° |
| 2026-05-06 01:58 | 35.14172 | -110.08283 | 37845 ft | 400 kts | 275° |
| 2026-05-06 01:59 | 35.15400 | -110.14939 | 37847 ft | 402 kts | 275° |
| 2026-05-06 01:59 | 35.16627 | -110.21618 | 37845 ft | 403 kts | 275° |
| 2026-05-06 02:00 | 35.17845 | -110.28267 | 37853 ft | 404 kts | 275° |
| 2026-05-06 02:00 | 35.19073 | -110.34992 | 37862 ft | 405 kts | 275° |
| 2026-05-06 02:01 | 35.20300 | -110.41737 | 37877 ft | 406 kts | 276° |
| 2026-05-06 02:01 | 35.21519 | -110.48460 | 37891 ft | 408 kts | 276° |
| 2026-05-06 02:02 | 35.22749 | -110.55263 | 37894 ft | 409 kts | 276° |
| 2026-05-06 02:02 | 35.23975 | -110.62071 | 37907 ft | 410 kts | 276° |
| 2026-05-06 02:03 | 35.25202 | -110.68907 | 37894 ft | 412 kts | 276° |
| 2026-05-06 02:03 | 35.26420 | -110.75714 | 37898 ft | 413 kts | 276° |
| 2026-05-06 02:04 | 35.27646 | -110.82592 | 37891 ft | 414 kts | 276° |
| 2026-05-06 02:04 | 35.28871 | -110.89489 | 37877 ft | 415 kts | 276° |
| 2026-05-06 02:05 | 35.30094 | -110.96395 | 37864 ft | 416 kts | 276° |
| 2026-05-06 02:05 | 35.30706 | -110.99862 | 37714 ft | 417 kts | 276° |
| 2026-05-06 02:05 | 35.31317 | -111.03330 | 37470 ft | 416 kts | 276° |
| 2026-05-06 02:06 | 35.31927 | -111.06794 | 37255 ft | 416 kts | 276° |
| 2026-05-06 02:06 | 35.32536 | -111.10263 | 37014 ft | 416 kts | 276° |
| 2026-05-06 02:06 | 35.33147 | -111.13744 | 36785 ft | 417 kts | 277° |
| 2026-05-06 02:06 | 35.33754 | -111.17217 | 36569 ft | 418 kts | 277° |
| 2026-05-06 02:07 | 35.34355 | -111.20652 | 36344 ft | 418 kts | 277° |
| 2026-05-06 02:07 | 35.34963 | -111.24143 | 36125 ft | 419 kts | 277° |
| 2026-05-06 02:07 | 35.35574 | -111.27650 | 35903 ft | 420 kts | 277° |
| 2026-05-06 02:07 | 35.36175 | -111.31108 | 35693 ft | 421 kts | 277° |
| 2026-05-06 02:08 | 35.36795 | -111.34681 | 35487 ft | 421 kts | 277° |
| 2026-05-06 02:08 | 35.37406 | -111.38213 | 35278 ft | 422 kts | 277° |
| 2026-05-06 02:08 | 35.38014 | -111.41735 | 35078 ft | 423 kts | 277° |
| 2026-05-06 02:08 | 35.38624 | -111.45269 | 34879 ft | 423 kts | 277° |
| 2026-05-06 02:09 | 35.39226 | -111.48764 | 34677 ft | 424 kts | 277° |
| 2026-05-06 02:09 | 35.39834 | -111.52302 | 34472 ft | 425 kts | 277° |
| 2026-05-06 02:09 | 35.40442 | -111.55847 | 34280 ft | 426 kts | 277° |
| 2026-05-06 02:09 | 35.41052 | -111.59406 | 34044 ft | 424 kts | 277° |
| 2026-05-06 02:10 | 35.41653 | -111.62918 | 33576 ft | 418 kts | 278° |
| 2026-05-06 02:10 | 35.42247 | -111.66393 | 33060 ft | 416 kts | 278° |
| 2026-05-06 02:10 | 35.42841 | -111.69880 | 32558 ft | 420 kts | 278° |
| 2026-05-06 02:10 | 35.43442 | -111.73408 | 32036 ft | 423 kts | 279° |
| 2026-05-06 02:11 | 35.44045 | -111.76953 | 31536 ft | 427 kts | 279° |
| 2026-05-06 02:11 | 35.44652 | -111.80533 | 31028 ft | 431 kts | 279° |
| 2026-05-06 02:11 | 35.45257 | -111.84105 | 30529 ft | 434 kts | 280° |
| 2026-05-06 02:11 | 35.45767 | -111.87766 | 30120 ft | 437 kts | 277° |
| 2026-05-06 02:12 | 35.46216 | -111.91475 | 29945 ft | 440 kts | 277° |
| 2026-05-06 02:12 | 35.46681 | -111.95199 | 29910 ft | 441 kts | 277° |
| 2026-05-06 02:12 | 35.47625 | -112.02675 | 29928 ft | 443 kts | 277° |
| 2026-05-06 02:13 | 35.48561 | -112.10111 | 29927 ft | 444 kts | 278° |
| 2026-05-06 02:13 | 35.49503 | -112.17626 | 29927 ft | 445 kts | 278° |
| 2026-05-06 02:14 | 35.49973 | -112.21386 | 29512 ft | 445 kts | 278° |
| 2026-05-06 02:14 | 35.50441 | -112.25150 | 29007 ft | 447 kts | 278° |
| 2026-05-06 02:14 | 35.50912 | -112.28939 | 28494 ft | 450 kts | 278° |
| 2026-05-06 02:14 | 35.51384 | -112.32752 | 27994 ft | 452 kts | 279° |
| 2026-05-06 02:15 | 35.51856 | -112.36576 | 27496 ft | 455 kts | 279° |
| 2026-05-06 02:15 | 35.52325 | -112.40386 | 27015 ft | 457 kts | 279° |
| 2026-05-06 02:15 | 35.52802 | -112.44263 | 26521 ft | 460 kts | 279° |
| 2026-05-06 02:15 | 35.53278 | -112.48158 | 26057 ft | 462 kts | 279° |
| 2026-05-06 02:16 | 35.53756 | -112.52066 | 25590 ft | 463 kts | 279° |
| 2026-05-06 02:16 | 35.54233 | -112.55987 | 25136 ft | 463 kts | 279° |
| 2026-05-06 02:16 | 35.54706 | -112.59879 | 24703 ft | 457 kts | 280° |
| 2026-05-06 02:16 | 35.55166 | -112.63678 | 24532 ft | 442 kts | 280° |
| 2026-05-06 02:17 | 35.55614 | -112.67381 | 24340 ft | 435 kts | 280° |
| 2026-05-06 02:17 | 35.56056 | -112.71053 | 24149 ft | 433 kts | 280° |
| 2026-05-06 02:17 | 35.56490 | -112.74660 | 23957 ft | 432 kts | 280° |
| 2026-05-06 02:17 | 35.56927 | -112.78308 | 23774 ft | 431 kts | 280° |
| 2026-05-06 02:18 | 35.57363 | -112.81946 | 23579 ft | 430 kts | 280° |
| 2026-05-06 02:18 | 35.57797 | -112.85572 | 23376 ft | 429 kts | 280° |
| 2026-05-06 02:18 | 35.58225 | -112.89187 | 23151 ft | 427 kts | 280° |
| 2026-05-06 02:18 | 35.58650 | -112.92801 | 22924 ft | 426 kts | 280° |
| 2026-05-06 02:19 | 35.59073 | -112.96401 | 22700 ft | 424 kts | 280° |
| 2026-05-06 02:19 | 35.59494 | -112.99989 | 22476 ft | 423 kts | 280° |
| 2026-05-06 02:19 | 35.59911 | -113.03555 | 22253 ft | 422 kts | 280° |
| 2026-05-06 02:19 | 35.60326 | -113.07116 | 22030 ft | 420 kts | 279° |
| 2026-05-06 02:20 | 35.61145 | -113.14162 | 21881 ft | 419 kts | 280° |
| 2026-05-06 02:20 | 35.61557 | -113.17713 | 21885 ft | 419 kts | 279° |
| 2026-05-06 02:20 | 35.61966 | -113.21261 | 21878 ft | 419 kts | 280° |
| 2026-05-06 02:21 | 35.62375 | -113.24807 | 21877 ft | 420 kts | 280° |
| 2026-05-06 02:21 | 35.62782 | -113.28359 | 21872 ft | 420 kts | 279° |
| 2026-05-06 02:21 | 35.63191 | -113.31919 | 21868 ft | 420 kts | 279° |
| 2026-05-06 02:21 | 35.63596 | -113.35471 | 21860 ft | 420 kts | 279° |
| 2026-05-06 02:22 | 35.64002 | -113.39028 | 21862 ft | 420 kts | 279° |
| 2026-05-06 02:22 | 35.64406 | -113.42589 | 21850 ft | 420 kts | 279° |
| 2026-05-06 02:22 | 35.64811 | -113.46162 | 21852 ft | 420 kts | 279° |
| 2026-05-06 02:22 | 35.65250 | -113.49713 | 21844 ft | 420 kts | 283° |
| 2026-05-06 02:23 | 35.65853 | -113.53224 | 21845 ft | 420 kts | 283° |
| 2026-05-06 02:23 | 35.66435 | -113.56700 | 21845 ft | 420 kts | 283° |
| 2026-05-06 02:23 | 35.67017 | -113.60237 | 21808 ft | 420 kts | 283° |
| 2026-05-06 02:23 | 35.67589 | -113.63742 | 21504 ft | 414 kts | 283° |
| 2026-05-06 02:24 | 35.68148 | -113.67187 | 21221 ft | 404 kts | 283° |
| 2026-05-06 02:24 | 35.68692 | -113.70547 | 20932 ft | 396 kts | 283° |
| 2026-05-06 02:24 | 35.69218 | -113.73800 | 20652 ft | 389 kts | 283° |
| 2026-05-06 02:24 | 35.69740 | -113.77033 | 20374 ft | 382 kts | 283° |
| 2026-05-06 02:25 | 35.70254 | -113.80222 | 20093 ft | 376 kts | 283° |
| 2026-05-06 02:25 | 35.70757 | -113.83350 | 19828 ft | 370 kts | 283° |
| 2026-05-06 02:25 | 35.71252 | -113.86433 | 19517 ft | 365 kts | 283° |
| 2026-05-06 02:25 | 35.71744 | -113.89507 | 19058 ft | 365 kts | 283° |
| 2026-05-06 02:26 | 35.72235 | -113.92574 | 18617 ft | 365 kts | 283° |
| 2026-05-06 02:26 | 35.72724 | -113.95637 | 18182 ft | 364 kts | 283° |
| 2026-05-06 02:26 | 35.73213 | -113.98697 | 17702 ft | 364 kts | 283° |
| 2026-05-06 02:26 | 35.73693 | -114.01719 | 17107 ft | 366 kts | 282° |
| 2026-05-06 02:27 | 35.74185 | -114.04817 | 16492 ft | 360 kts | 283° |
| 2026-05-06 02:27 | 35.74653 | -114.07765 | 15913 ft | 352 kts | 283° |
| 2026-05-06 02:27 | 35.75119 | -114.10707 | 15332 ft | 346 kts | 283° |
| 2026-05-06 02:27 | 35.75575 | -114.13588 | 14762 ft | 339 kts | 283° |
| 2026-05-06 02:28 | 35.76269 | -114.16299 | 14320 ft | 325 kts | 301° |
| 2026-05-06 02:28 | 35.77347 | -114.18652 | 14249 ft | 310 kts | 300° |
| 2026-05-06 02:28 | 35.78372 | -114.20991 | 14111 ft | 308 kts | 300° |
| 2026-05-06 02:28 | 35.79390 | -114.23305 | 13665 ft | 306 kts | 300° |
| 2026-05-06 02:29 | 35.80403 | -114.25604 | 13149 ft | 304 kts | 300° |
| 2026-05-06 02:29 | 35.81407 | -114.27880 | 12629 ft | 301 kts | 300° |
| 2026-05-06 02:29 | 35.82404 | -114.30141 | 12112 ft | 298 kts | 300° |
| 2026-05-06 02:29 | 35.83378 | -114.32349 | 11614 ft | 295 kts | 300° |
| 2026-05-06 02:30 | 35.84484 | -114.34473 | 11153 ft | 296 kts | 310° |
| 2026-05-06 02:30 | 35.85779 | -114.36450 | 10784 ft | 296 kts | 309° |
| 2026-05-06 02:30 | 35.87049 | -114.38444 | 10431 ft | 296 kts | 308° |
| 2026-05-06 02:30 | 35.88309 | -114.40448 | 10079 ft | 295 kts | 307° |
| 2026-05-06 02:31 | 35.89548 | -114.42438 | 9939 ft | 288 kts | 307° |
| 2026-05-06 02:31 | 35.90755 | -114.44387 | 9927 ft | 286 kts | 307° |
| 2026-05-06 02:31 | 35.91959 | -114.46338 | 9917 ft | 285 kts | 307° |
| 2026-05-06 02:31 | 35.93161 | -114.48290 | 9918 ft | 286 kts | 307° |
| 2026-05-06 02:32 | 35.94363 | -114.50244 | 9920 ft | 286 kts | 307° |
| 2026-05-06 02:32 | 35.95565 | -114.52199 | 9922 ft | 285 kts | 307° |
| 2026-05-06 02:32 | 35.96755 | -114.54127 | 9815 ft | 279 kts | 307° |
| 2026-05-06 02:32 | 35.97918 | -114.56013 | 9685 ft | 273 kts | 307° |
| 2026-05-06 02:33 | 35.99033 | -114.57822 | 9538 ft | 264 kts | 307° |
| 2026-05-06 02:33 | 35.99784 | -114.59040 | 9415 ft | 262 kts | 307° |
| 2026-05-06 02:33 | 36.02345 | -114.63199 | 8978 ft | 260 kts | 307° |
| 2026-05-06 02:34 | 36.03071 | -114.64379 | 8967 ft | 259 kts | 307° |
| 2026-05-06 02:34 | 36.04395 | -114.66791 | 8787 ft | 250 kts | 301° |
| 2026-05-06 02:34 | 36.04989 | -114.68004 | 8616 ft | 249 kts | 301° |
| 2026-05-06 02:34 | 36.05888 | -114.69823 | 8345 ft | 247 kts | 301° |
| 2026-05-06 02:35 | 36.06785 | -114.71630 | 8087 ft | 246 kts | 300° |
| 2026-05-06 02:35 | 36.07278 | -114.73591 | 7944 ft | 237 kts | 272° |
| 2026-05-06 02:35 | 36.07299 | -114.76278 | 7697 ft | 236 kts | 272° |
| 2026-05-06 02:35 | 36.07324 | -114.77654 | 7493 ft | 238 kts | 271° |
| 2026-05-06 02:36 | 36.07344 | -114.79703 | 7173 ft | 239 kts | 270° |
| 2026-05-06 02:36 | 36.07352 | -114.81761 | 6859 ft | 240 kts | 270° |
| 2026-05-06 02:36 | 36.07355 | -114.83833 | 6538 ft | 241 kts | 270° |
| 2026-05-06 02:36 | 36.07357 | -114.85904 | 6229 ft | 241 kts | 270° |
| 2026-05-06 02:37 | 36.07359 | -114.87969 | 5948 ft | 240 kts | 270° |
| 2026-05-06 02:37 | 36.07359 | -114.90038 | 5610 ft | 241 kts | 270° |
| 2026-05-06 02:37 | 36.07360 | -114.92089 | 5279 ft | 242 kts | 269° |
| 2026-05-06 02:37 | 36.07274 | -114.94147 | 4820 ft | 242 kts | 252° |
| 2026-05-06 02:38 | 36.06615 | -114.96123 | 4392 ft | 244 kts | 256° |
| 2026-05-06 02:38 | 36.06592 | -114.98144 | 4282 ft | 234 kts | 280° |
| 2026-05-06 02:38 | 36.06935 | -115.00050 | 3845 ft | 222 kts | 280° |
| 2026-05-06 02:38 | 36.07192 | -115.01906 | 3389 ft | 211 kts | 275° |
| 2026-05-06 02:39 | 36.07301 | -115.03716 | 3259 ft | 213 kts | 271° |
| 2026-05-06 02:39 | 36.07346 | -115.05502 | 3164 ft | 208 kts | 269° |
| 2026-05-06 02:39 | 36.07355 | -115.07220 | 2908 ft | 187 kts | 267° |
| 2026-05-06 02:39 | 36.07349 | -115.08729 | 2631 ft | 165 kts | 266° |
| 2026-05-06 02:40 | 36.07366 | -115.10092 | 2380 ft | 158 kts | 267° |
| 2026-05-06 02:40 | 36.07373 | -115.11398 | 2191 ft | 142 kts | 266° |
| 2026-05-06 02:40 | 36.07367 | -115.12709 | 2099 ft | 152 kts | 267° |
| 2026-05-06 02:40 | 36.07368 | -115.13957 | 2242 ft | 156 kts | 266° |
| 2026-05-06 02:41 | 36.07361 | -115.15452 | 2609 ft | 187 kts | 266° |
| 2026-05-06 02:41 | 36.07386 | -115.17130 | 3104 ft | 204 kts | 270° |
| 2026-05-06 02:41 | 36.07402 | -115.18801 | 3311 ft | 187 kts | 268° |
| 2026-05-06 02:41 | 36.07430 | -115.20393 | 3471 ft | 191 kts | 271° |
| 2026-05-06 02:42 | 36.07556 | -115.22065 | 3997 ft | 194 kts | 278° |
| 2026-05-06 02:42 | 36.07786 | -115.23680 | 4363 ft | 206 kts | 273° |
| 2026-05-06 02:42 | 36.07315 | -115.25549 | 3880 ft | 248 kts | 233° |
| 2026-05-06 02:42 | 36.05922 | -115.26726 | 3608 ft | 246 kts | 195° |
| 2026-05-06 02:43 | 36.04245 | -115.26543 | 3784 ft | 249 kts | 158° |
| 2026-05-06 02:43 | 36.02899 | -115.25220 | 4279 ft | 242 kts | 128° |
| 2026-05-06 02:43 | 36.02313 | -115.23356 | 4756 ft | 233 kts | 97° |
| 2026-05-06 02:43 | 36.02232 | -115.21346 | 5246 ft | 233 kts | 91° |
| 2026-05-06 02:44 | 36.02183 | -115.19338 | 5749 ft | 235 kts | 95° |
| 2026-05-06 02:44 | 36.01937 | -115.17343 | 6326 ft | 235 kts | 101° |
| 2026-05-06 02:44 | 36.01628 | -115.15345 | 6816 ft | 238 kts | 101° |
| 2026-05-06 02:44 | 36.01307 | -115.13325 | 7017 ft | 240 kts | 101° |
| 2026-05-06 02:45 | 36.00977 | -115.11294 | 7039 ft | 244 kts | 101° |
| 2026-05-06 02:45 | 36.00648 | -115.09261 | 6975 ft | 244 kts | 101° |
| 2026-05-06 02:45 | 36.00314 | -115.07208 | 7011 ft | 244 kts | 101° |
| 2026-05-06 02:45 | 35.99979 | -115.05147 | 7036 ft | 244 kts | 101° |
| 2026-05-06 02:46 | 35.99645 | -115.03086 | 7032 ft | 244 kts | 101° |
| 2026-05-06 02:46 | 35.99312 | -115.01029 | 7017 ft | 245 kts | 101° |
| 2026-05-06 02:46 | 35.98979 | -114.98964 | 6992 ft | 245 kts | 101° |
| 2026-05-06 02:46 | 35.98650 | -114.96903 | 7008 ft | 245 kts | 101° |
| 2026-05-06 02:47 | 35.98324 | -114.94844 | 6999 ft | 244 kts | 101° |
| 2026-05-06 02:47 | 35.97999 | -114.92781 | 6996 ft | 245 kts | 101° |
| 2026-05-06 02:47 | 35.97679 | -114.90748 | 7001 ft | 244 kts | 101° |
| 2026-05-06 02:47 | 35.97354 | -114.88692 | 6993 ft | 244 kts | 101° |
| 2026-05-06 02:48 | 35.97030 | -114.86634 | 6997 ft | 244 kts | 101° |
| 2026-05-06 02:48 | 35.96709 | -114.84579 | 6996 ft | 244 kts | 101° |
| 2026-05-06 02:48 | 35.96392 | -114.82525 | 6998 ft | 243 kts | 101° |
| 2026-05-06 02:48 | 35.96078 | -114.80473 | 6997 ft | 244 kts | 101° |
| 2026-05-06 02:49 | 35.95768 | -114.78409 | 7002 ft | 244 kts | 101° |
| 2026-05-06 02:49 | 35.95696 | -114.76334 | 6972 ft | 243 kts | 77° |
| 2026-05-06 02:49 | 35.96248 | -114.74374 | 6965 ft | 243 kts | 66° |
| 2026-05-06 02:49 | 35.97101 | -114.72580 | 6997 ft | 242 kts | 52° |
| 2026-05-06 02:50 | 35.98233 | -114.71042 | 6976 ft | 241 kts | 35° |
| 2026-05-06 02:50 | 35.99695 | -114.70059 | 6983 ft | 240 kts | 19° |
| 2026-05-06 02:50 | 36.01251 | -114.69383 | 6993 ft | 241 kts | 17° |
| 2026-05-06 02:50 | 36.02865 | -114.68895 | 6945 ft | 237 kts | 356° |
| 2026-05-06 02:51 | 36.04387 | -114.69481 | 6949 ft | 230 kts | 323° |
| 2026-05-06 02:51 | 36.05662 | -114.70700 | 6991 ft | 234 kts | 322° |
| 2026-05-06 02:51 | 36.06819 | -114.72080 | 6953 ft | 230 kts | 300° |
| 2026-05-06 02:51 | 36.07316 | -114.73930 | 6949 ft | 228 kts | 275° |
| 2026-05-06 02:52 | 36.07360 | -114.75903 | 6986 ft | 230 kts | 270° |
| 2026-05-06 02:52 | 36.07358 | -114.77884 | 6931 ft | 231 kts | 270° |
| 2026-05-06 02:52 | 36.07358 | -114.79876 | 6694 ft | 232 kts | 270° |
| 2026-05-06 02:52 | 36.07358 | -114.81873 | 6435 ft | 232 kts | 269° |
| 2026-05-06 02:53 | 36.07359 | -114.83877 | 6077 ft | 235 kts | 269° |
| 2026-05-06 02:53 | 36.07359 | -114.85911 | 5687 ft | 239 kts | 269° |
| 2026-05-06 02:53 | 36.07359 | -114.87972 | 5331 ft | 240 kts | 269° |
| 2026-05-06 02:53 | 36.07360 | -114.90055 | 4963 ft | 244 kts | 269° |
| 2026-05-06 02:54 | 36.07360 | -114.92140 | 4736 ft | 240 kts | 269° |
| 2026-05-06 02:54 | 36.07361 | -114.94154 | 4527 ft | 228 kts | 269° |
| 2026-05-06 02:54 | 36.07361 | -114.96078 | 4304 ft | 219 kts | 269° |
| 2026-05-06 02:54 | 36.07361 | -114.97925 | 4094 ft | 209 kts | 269° |
| 2026-05-06 02:55 | 36.07362 | -114.99606 | 3889 ft | 186 kts | 269° |
| 2026-05-06 02:55 | 36.07362 | -115.01102 | 3716 ft | 163 kts | 268° |
| 2026-05-06 02:55 | 36.07362 | -115.02476 | 3563 ft | 154 kts | 268° |
| 2026-05-06 02:55 | 36.07302 | -115.03754 | 3299 ft | 146 kts | 244° |
| 2026-05-06 02:56 | 36.07090 | -115.04977 | 2950 ft | 146 kts | 269° |
| 2026-05-06 02:56 | 36.07206 | -115.06240 | 2835 ft | 150 kts | 274° |
| 2026-05-06 02:56 | 36.07309 | -115.07528 | 2672 ft | 152 kts | 269° |
| 2026-05-06 02:56 | 36.07328 | -115.08837 | 2626 ft | 153 kts | 267° |
| 2026-05-06 02:57 | 36.07359 | -115.10145 | 2438 ft | 152 kts | 268° |
| 2026-05-06 02:57 | 36.07358 | -115.11452 | 2266 ft | 151 kts | 266° |
| 2026-05-06 02:57 | 36.07361 | -115.12733 | 2114 ft | 150 kts | 268° |
| 2026-05-06 02:57 | 36.07357 | -115.13947 | 2102 ft | 128 kts | 269° |
| 2026-05-06 02:58 | 36.07361 | -115.14821 | 2130 ft | 70 kts | 270° |
| 2026-05-06 02:58 | 36.07370 | -115.15185 | 2135 ft | 24 kts | 275° |
| 2026-05-06 02:58 | 36.07407 | -115.15364 | 2143 ft | 8 kts | 291° |
| 2026-05-06 02:58 | 36.07413 | -115.15382 | 2145 ft | 1 kts | 292° |
| 2026-05-06 02:59 | 36.07431 | -115.15430 | 2147 ft | 9 kts | 296° |
| 2026-05-06 02:59 | 36.07457 | -115.15488 | 2151 ft | 7 kts | 301° |
| 2026-05-06 02:59 | 36.07483 | -115.15540 | 2154 ft | 10 kts | 302° |
| 2026-05-06 02:59 | 36.07531 | -115.15613 | 2162 ft | 10 kts | 314° |
| 2026-05-06 03:00 | 36.07569 | -115.15662 | 2166 ft | 7 kts | 314° |
| 2026-05-06 03:00 | 36.07634 | -115.15745 | 2168 ft | 20 kts | 315° |
| 2026-05-06 03:00 | 36.07746 | -115.15823 | 2165 ft | 17 kts | 353° |
| 2026-05-06 03:00 | 36.07834 | -115.15827 | 2163 ft | 11 kts | 358° |
| 2026-05-06 03:01 | 36.07888 | -115.15811 | 2164 ft | 5 kts | 42° |
| 2026-05-06 03:01 | 36.07894 | -115.15755 | 2165 ft | 12 kts | 93° |
| 2026-05-06 03:01 | 36.07884 | -115.15628 | 2156 ft | 20 kts | 95° |
| 2026-05-06 03:01 | 36.07876 | -115.15432 | 2159 ft | 25 kts | 90° |
| 2026-05-06 03:02 | 36.07876 | -115.15199 | 2153 ft | 30 kts | 91° |
| 2026-05-06 03:02 | 36.07868 | -115.14953 | 2144 ft | 26 kts | 94° |
| 2026-05-06 03:02 | 36.07919 | -115.14827 | 2136 ft | 15 kts | 353° |
| 2026-05-06 03:02 | 36.07980 | -115.14835 | 2134 ft | 5 kts | 32° |
| 2026-05-06 03:03 | 36.08011 | -115.14788 | 2131 ft | 10 kts | 60° |
| 2026-05-06 03:03 | 36.08029 | -115.14746 | 2129 ft | 0 kts | 62° |